sensor_id;sensor_type;location;lat;lon;timestamp;pressure;altitude;pressure_sealevel;temperature;humidity
10606;BME280;5350;42.698;23.148;2023-04-21T00:01:43;93272.03;;;9.81;93.89
10606;BME280;5350;42.698;23.148;2023-04-21T00:04:10;93272.03;;;9.68;94.32
10606;BME280;5350;42.698;23.148;2023-04-21T00:06:39;93274.84;;;9.71;95.86
10606;BME280;5350;42.698;23.148;2023-04-21T00:09:08;93269.50;;;9.62;96.51
10606;BME280;5350;42.698;23.148;2023-04-21T00:11:35;93276.28;;;9.50;97.32
10606;BME280;5350;42.698;23.148;2023-04-21T00:14:02;93270.75;;;9.38;97.91
10606;BME280;5350;42.698;23.148;2023-04-21T00:16:28;93270.06;;;9.46;97.42
10606;BME280;5350;42.698;23.148;2023-04-21T00:18:55;93266.75;;;9.40;97.40
10606;BME280;5350;42.698;23.148;2023-04-21T00:21:22;93277.53;;;9.39;98.12
10606;BME280;5350;42.698;23.148;2023-04-21T00:23:49;93271.59;;;9.20;98.31
10606;BME280;5350;42.698;23.148;2023-04-21T00:26:17;93267.47;;;9.14;98.61
10606;BME280;5350;42.698;23.148;2023-04-21T00:28:44;93263.78;;;9.15;99.24
10606;BME280;5350;42.698;23.148;2023-04-21T00:31:11;93261.34;;;9.18;98.35
10606;BME280;5350;42.698;23.148;2023-04-21T00:33:37;93268.28;;;9.28;98.57
10606;BME280;5350;42.698;23.148;2023-04-21T00:36:04;93266.34;;;9.33;97.54
10606;BME280;5350;42.698;23.148;2023-04-21T00:38:31;93270.81;;;9.33;97.70
10606;BME280;5350;42.698;23.148;2023-04-21T00:40:58;93270.25;;;9.36;97.65
10606;BME280;5350;42.698;23.148;2023-04-21T00:43:26;93268.09;;;9.38;97.67
10606;BME280;5350;42.698;23.148;2023-04-21T00:45:53;93275.81;;;9.48;96.26
10606;BME280;5350;42.698;23.148;2023-04-21T00:48:20;93266.28;;;9.52;95.80
10606;BME280;5350;42.698;23.148;2023-04-21T00:50:47;93276.78;;;9.52;95.72
10606;BME280;5350;42.698;23.148;2023-04-21T00:53:14;93268.13;;;9.65;94.20
10606;BME280;5350;42.698;23.148;2023-04-21T00:55:41;93268.22;;;9.60;94.80
10606;BME280;5350;42.698;23.148;2023-04-21T00:58:07;93268.72;;;9.62;94.79
10606;BME280;5350;42.698;23.148;2023-04-21T01:00:36;93148.06;;;8.70;94.79
10606;BME280;5350;42.698;23.148;2023-04-21T01:03:04;93265.59;;;9.60;95.57
10606;BME280;5350;42.698;23.148;2023-04-21T01:05:32;93274.19;;;9.65;94.78
10606;BME280;5350;42.698;23.148;2023-04-21T01:08:00;93260.94;;;9.57;95.39
10606;BME280;5350;42.698;23.148;2023-04-21T01:10:27;93263.09;;;9.55;95.62
10606;BME280;5350;42.698;23.148;2023-04-21T01:12:54;93265.00;;;9.49;96.31
10606;BME280;5350;42.698;23.148;2023-04-21T01:15:21;93262.59;;;9.53;96.44
10606;BME280;5350;42.698;23.148;2023-04-21T01:17:49;93259.16;;;9.39;96.57
10606;BME280;5350;42.698;23.148;2023-04-21T01:20:18;93264.59;;;9.29;98.34
10606;BME280;5350;42.698;23.148;2023-04-21T01:22:46;93258.53;;;9.15;98.85
10606;BME280;5350;42.698;23.148;2023-04-21T01:25:15;93258.94;;;9.22;99.02
10606;BME280;5350;42.698;23.148;2023-04-21T01:27:42;93250.41;;;9.30;97.92
10606;BME280;5350;42.698;23.148;2023-04-21T01:30:10;93241.72;;;9.16;98.71
10606;BME280;5350;42.698;23.148;2023-04-21T01:32:36;93250.78;;;9.23;98.84
10606;BME280;5350;42.698;23.148;2023-04-21T01:35:04;93254.63;;;9.12;99.77
10606;BME280;5350;42.698;23.148;2023-04-21T01:37:32;93251.91;;;9.04;100.00
10606;BME280;5350;42.698;23.148;2023-04-21T01:40:03;93238.91;;;9.12;100.00
10606;BME280;5350;42.698;23.148;2023-04-21T01:42:34;93239.84;;;9.03;100.00
10606;BME280;5350;42.698;23.148;2023-04-21T01:45:01;93242.59;;;9.11;100.00
10606;BME280;5350;42.698;23.148;2023-04-21T01:47:28;93243.78;;;9.19;100.00
10606;BME280;5350;42.698;23.148;2023-04-21T01:49:54;93244.34;;;9.16;100.00
10606;BME280;5350;42.698;23.148;2023-04-21T01:52:21;93239.31;;;9.19;100.00
10606;BME280;5350;42.698;23.148;2023-04-21T01:54:48;93241.06;;;9.24;100.00
10606;BME280;5350;42.698;23.148;2023-04-21T01:57:16;93248.47;;;9.22;100.00
10606;BME280;5350;42.698;23.148;2023-04-21T01:59:43;93244.75;;;9.23;100.00
10606;BME280;5350;42.698;23.148;2023-04-21T02:02:10;93243.22;;;9.22;100.00
10606;BME280;5350;42.698;23.148;2023-04-21T02:04:36;93243.28;;;9.17;100.00
10606;BME280;5350;42.698;23.148;2023-04-21T02:07:03;93240.38;;;9.18;100.00
10606;BME280;5350;42.698;23.148;2023-04-21T02:09:30;93241.06;;;9.24;100.00
10606;BME280;5350;42.698;23.148;2023-04-21T02:11:57;93236.38;;;9.21;100.00
10606;BME280;5350;42.698;23.148;2023-04-21T02:14:26;93240.25;;;9.10;100.00
10606;BME280;5350;42.698;23.148;2023-04-21T02:16:53;93240.28;;;9.23;100.00
10606;BME280;5350;42.698;23.148;2023-04-21T02:19:20;93238.81;;;9.17;100.00
10606;BME280;5350;42.698;23.148;2023-04-21T02:21:47;93209.34;;;9.07;100.00
10606;BME280;5350;42.698;23.148;2023-04-21T02:24:13;93232.72;;;9.22;100.00
10606;BME280;5350;42.698;23.148;2023-04-21T02:26:40;93232.59;;;9.27;100.00
10606;BME280;5350;42.698;23.148;2023-04-21T02:29:07;93231.19;;;9.34;100.00
10606;BME280;5350;42.698;23.148;2023-04-21T02:31:35;93224.34;;;9.33;99.54
10606;BME280;5350;42.698;23.148;2023-04-21T02:34:02;93236.81;;;9.28;100.00
10606;BME280;5350;42.698;23.148;2023-04-21T02:36:28;93232.97;;;9.20;100.00
10606;BME280;5350;42.698;23.148;2023-04-21T02:38:55;93231.56;;;9.28;100.00
10606;BME280;5350;42.698;23.148;2023-04-21T02:41:22;93242.81;;;9.28;100.00
10606;BME280;5350;42.698;23.148;2023-04-21T02:43:49;93237.25;;;9.16;100.00
10606;BME280;5350;42.698;23.148;2023-04-21T02:46:15;93241.06;;;9.24;100.00
10606;BME280;5350;42.698;23.148;2023-04-21T02:48:43;93233.19;;;9.24;100.00
10606;BME280;5350;42.698;23.148;2023-04-21T02:51:11;93239.59;;;9.18;100.00
10606;BME280;5350;42.698;23.148;2023-04-21T02:53:38;93243.78;;;9.19;100.00
10606;BME280;5350;42.698;23.148;2023-04-21T02:56:05;93244.56;;;9.19;100.00
10606;BME280;5350;42.698;23.148;2023-04-21T02:58:33;93243.00;;;9.18;100.00
10606;BME280;5350;42.698;23.148;2023-04-21T03:01:00;93247.47;;;9.18;100.00
10606;BME280;5350;42.698;23.148;2023-04-21T03:03:27;93243.22;;;9.22;100.00
10606;BME280;5350;42.698;23.148;2023-04-21T03:05:59;93241.06;;;9.24;100.00
10606;BME280;5350;42.698;23.148;2023-04-21T03:08:26;93252.91;;;9.21;100.00
10606;BME280;5350;42.698;23.148;2023-04-21T03:10:53;93249.44;;;9.26;100.00
10606;BME280;5350;42.698;23.148;2023-04-21T03:13:20;93247.28;;;9.28;100.00
10606;BME280;5350;42.698;23.148;2023-04-21T03:15:47;93240.59;;;9.22;100.00
10606;BME280;5350;42.698;23.148;2023-04-21T03:18:14;93245.44;;;9.28;99.74
10606;BME280;5350;42.698;23.148;2023-04-21T03:20:41;93250.41;;;9.30;99.99
10606;BME280;5350;42.698;23.148;2023-04-21T03:23:09;93250.00;;;9.23;100.00
10606;BME280;5350;42.698;23.148;2023-04-21T03:25:37;93238.91;;;9.12;99.93
10606;BME280;5350;42.698;23.148;2023-04-21T03:28:04;93250.41;;;9.30;99.26
10606;BME280;5350;42.698;23.148;2023-04-21T03:30:30;93249.31;;;9.31;98.87
10606;BME280;5350;42.698;23.148;2023-04-21T03:32:57;93255.28;;;9.36;98.60
10606;BME280;5350;42.698;23.148;2023-04-21T03:35:24;93253.03;;;9.30;99.13
10606;BME280;5350;42.698;23.148;2023-04-21T03:37:51;93260.00;;;9.21;99.59
10606;BME280;5350;42.698;23.148;2023-04-21T03:40:19;93263.13;;;9.23;99.77
10606;BME280;5350;42.698;23.148;2023-04-21T03:42:46;93262.63;;;9.21;100.00
10606;BME280;5350;42.698;23.148;2023-04-21T03:45:12;93259.50;;;9.19;100.00
10606;BME280;5350;42.698;23.148;2023-04-21T03:47:39;93264.28;;;9.17;100.00
10606;BME280;5350;42.698;23.148;2023-04-21T03:50:07;93257.38;;;9.21;100.00
10606;BME280;5350;42.698;23.148;2023-04-21T03:52:33;93264.28;;;9.17;100.00
10606;BME280;5350;42.698;23.148;2023-04-21T03:55:00;93266.91;;;9.17;100.00
10606;BME280;5350;42.698;23.148;2023-04-21T03:57:28;93265.94;;;9.26;100.00
10606;BME280;5350;42.698;23.148;2023-04-21T03:59:55;93267.31;;;9.24;100.00
10606;BME280;5350;42.698;23.148;2023-04-21T04:02:21;93274.97;;;9.20;100.00
10606;BME280;5350;42.698;23.148;2023-04-21T04:04:48;93277.03;;;9.23;100.00
10606;BME280;5350;42.698;23.148;2023-04-21T04:07:15;93272.56;;;9.24;100.00
10606;BME280;5350;42.698;23.148;2023-04-21T04:09:42;93271.00;;;9.23;100.00
10606;BME280;5350;42.698;23.148;2023-04-21T04:12:09;93273.53;;;9.28;100.00
10606;BME280;5350;42.698;23.148;2023-04-21T04:14:37;93281.72;;;9.40;100.00
10606;BME280;5350;42.698;23.148;2023-04-21T04:17:03;93287.56;;;9.50;100.00
10606;BME280;5350;42.698;23.148;2023-04-21T04:19:30;93285.63;;;9.56;100.00
10606;BME280;5350;42.698;23.148;2023-04-21T04:21:58;93300.72;;;9.64;99.47
10606;BME280;5350;42.698;23.148;2023-04-21T04:24:25;93295.28;;;9.74;98.00
10606;BME280;5350;42.698;23.148;2023-04-21T04:26:52;93300.03;;;9.72;98.27
10606;BME280;5350;42.698;23.148;2023-04-21T04:29:20;93289.53;;;9.72;98.48
10606;BME280;5350;42.698;23.148;2023-04-21T04:31:49;93305.50;;;9.89;97.21
10606;BME280;5350;42.698;23.148;2023-04-21T04:34:16;93303.16;;;9.88;96.89
10606;BME280;5350;42.698;23.148;2023-04-21T04:36:43;93310.25;;;9.87;97.73
10606;BME280;5350;42.698;23.148;2023-04-21T04:39:09;93308.13;;;9.89;98.82
10606;BME280;5350;42.698;23.148;2023-04-21T04:41:37;93308.81;;;9.81;99.10
10606;BME280;5350;42.698;23.148;2023-04-21T04:44:04;93310.00;;;9.89;99.20
10606;BME280;5350;42.698;23.148;2023-04-21T04:46:32;93307.66;;;10.01;98.69
10606;BME280;5350;42.698;23.148;2023-04-21T04:49:00;93309.97;;;10.02;97.93
10606;BME280;5350;42.698;23.148;2023-04-21T04:51:27;93311.25;;;10.05;97.87
10606;BME280;5350;42.698;23.148;2023-04-21T04:53:54;93317.69;;;10.12;96.97
10606;BME280;5350;42.698;23.148;2023-04-21T04:56:21;93307.28;;;10.21;97.85
10606;BME280;5350;42.698;23.148;2023-04-21T04:58:48;93309.19;;;10.42;93.75
10606;BME280;5350;42.698;23.148;2023-04-21T05:01:15;93302.38;;;10.41;94.58
10606;BME280;5350;42.698;23.148;2023-04-21T05:03:42;93305.97;;;10.45;95.87
10606;BME280;5350;42.698;23.148;2023-04-21T05:06:10;93310.66;;;10.49;94.24
10606;BME280;5350;42.698;23.148;2023-04-21T05:08:38;93301.28;;;10.56;93.47
10606;BME280;5350;42.698;23.148;2023-04-21T05:11:06;93310.75;;;10.57;93.48
10606;BME280;5350;42.698;23.148;2023-04-21T05:13:32;93313.63;;;10.56;94.10
10606;BME280;5350;42.698;23.148;2023-04-21T05:15:59;93309.56;;;10.63;93.56
10606;BME280;5350;42.698;23.148;2023-04-21T05:18:27;93311.66;;;10.75;94.04
10606;BME280;5350;42.698;23.148;2023-04-21T05:20:54;93322.16;;;10.75;93.68
10606;BME280;5350;42.698;23.148;2023-04-21T05:23:22;93308.19;;;10.66;94.44
10606;BME280;5350;42.698;23.148;2023-04-21T05:25:49;93303.50;;;10.63;94.23
10606;BME280;5350;42.698;23.148;2023-04-21T05:28:16;93312.19;;;10.85;93.16
10606;BME280;5350;42.698;23.148;2023-04-21T05:30:42;93314.91;;;10.94;93.58
10606;BME280;5350;42.698;23.148;2023-04-21T05:33:09;93316.34;;;11.00;93.24
10606;BME280;5350;42.698;23.148;2023-04-21T05:35:36;93306.03;;;11.03;93.23
10606;BME280;5350;42.698;23.148;2023-04-21T05:38:03;93308.88;;;11.15;93.14
10606;BME280;5350;42.698;23.148;2023-04-21T05:40:31;93306.59;;;11.22;92.05
10606;BME280;5350;42.698;23.148;2023-04-21T05:42:57;93316.38;;;11.22;91.85
10606;BME280;5350;42.698;23.148;2023-04-21T05:45:24;93315.03;;;11.11;91.92
10606;BME280;5350;42.698;23.148;2023-04-21T05:47:51;93304.69;;;11.14;91.70
10606;BME280;5350;42.698;23.148;2023-04-21T05:50:18;93303.47;;;11.20;91.51
10606;BME280;5350;42.698;23.148;2023-04-21T05:52:44;93311.19;;;11.39;92.10
10606;BME280;5350;42.698;23.148;2023-04-21T05:55:11;93311.06;;;11.44;90.71
10606;BME280;5350;42.698;23.148;2023-04-21T05:57:39;93314.25;;;11.55;91.09
10606;BME280;5350;42.698;23.148;2023-04-21T06:00:07;93322.19;;;11.63;90.23
10606;BME280;5350;42.698;23.148;2023-04-21T06:02:37;93317.72;;;11.64;89.19
10606;BME280;5350;42.698;23.148;2023-04-21T06:05:04;93319.25;;;11.65;89.75
10606;BME280;5350;42.698;23.148;2023-04-21T06:07:31;93306.28;;;11.46;90.20
10606;BME280;5350;42.698;23.148;2023-04-21T06:10:01;93317.13;;;11.45;90.28
10606;BME280;5350;42.698;23.148;2023-04-21T06:12:28;93313.88;;;11.48;90.73
10606;BME280;5350;42.698;23.148;2023-04-21T06:14:56;93311.19;;;11.61;91.54
10606;BME280;5350;42.698;23.148;2023-04-21T06:17:23;93303.03;;;11.71;90.05
10606;BME280;5350;42.698;23.148;2023-04-21T06:19:50;93311.94;;;11.84;91.35
10606;BME280;5350;42.698;23.148;2023-04-21T06:22:18;93311.50;;;11.90;88.74
10606;BME280;5350;42.698;23.148;2023-04-21T06:24:45;93293.63;;;11.79;88.20
10606;BME280;5350;42.698;23.148;2023-04-21T06:27:12;93309.34;;;11.92;88.36
10606;BME280;5350;42.698;23.148;2023-04-21T06:29:40;93312.72;;;11.84;87.14
10606;BME280;5350;42.698;23.148;2023-04-21T06:32:08;93310.84;;;11.85;87.79
10606;BME280;5350;42.698;23.148;2023-04-21T06:34:35;93309.16;;;11.80;88.29
10606;BME280;5350;42.698;23.148;2023-04-21T06:37:02;93303.78;;;12.02;88.84
10606;BME280;5350;42.698;23.148;2023-04-21T06:39:29;93306.16;;;12.13;86.11
10606;BME280;5350;42.698;23.148;2023-04-21T06:41:55;93306.91;;;12.04;86.38
10606;BME280;5350;42.698;23.148;2023-04-21T06:44:23;93304.91;;;12.10;86.88
10606;BME280;5350;42.698;23.148;2023-04-21T06:46:50;93305.28;;;12.26;87.29
10606;BME280;5350;42.698;23.148;2023-04-21T06:49:18;93306.09;;;12.35;86.09
10606;BME280;5350;42.698;23.148;2023-04-21T06:51:44;93298.34;;;12.47;87.77
10606;BME280;5350;42.698;23.148;2023-04-21T06:54:11;93301.63;;;12.69;83.75
10606;BME280;5350;42.698;23.148;2023-04-21T06:56:38;93303.38;;;12.91;84.23
10606;BME280;5350;42.698;23.148;2023-04-21T06:59:07;93304.47;;;13.07;82.44
10606;BME280;5350;42.698;23.148;2023-04-21T07:01:33;93295.59;;;13.03;80.68
10606;BME280;5350;42.698;23.148;2023-04-21T07:04:00;93293.88;;;12.99;80.51
10606;BME280;5350;42.698;23.148;2023-04-21T07:06:28;93296.84;;;12.97;80.87
10606;BME280;5350;42.698;23.148;2023-04-21T07:08:56;93309.72;;;12.99;82.52
10606;BME280;5350;42.698;23.148;2023-04-21T07:11:22;93300.44;;;13.10;81.99
10606;BME280;5350;42.698;23.148;2023-04-21T07:13:49;93293.44;;;13.22;80.13
10606;BME280;5350;42.698;23.148;2023-04-21T07:16:16;93303.22;;;13.30;81.02
10606;BME280;5350;42.698;23.148;2023-04-21T07:18:42;93304.88;;;13.43;84.08
10606;BME280;5350;42.698;23.148;2023-04-21T07:21:09;93310.34;;;13.38;78.79
10606;BME280;5350;42.698;23.148;2023-04-21T07:23:37;93308.19;;;13.23;79.06
10606;BME280;5350;42.698;23.148;2023-04-21T07:26:04;93294.69;;;13.08;81.49
10606;BME280;5350;42.698;23.148;2023-04-21T07:28:31;93308.19;;;13.06;80.72
10606;BME280;5350;42.698;23.148;2023-04-21T07:30:57;93326.84;;;13.10;80.11
10606;BME280;5350;42.698;23.148;2023-04-21T07:33:24;93313.31;;;13.45;79.82
10606;BME280;5350;42.698;23.148;2023-04-21T07:35:51;93300.19;;;13.75;77.88
10606;BME280;5350;42.698;23.148;2023-04-21T07:38:18;93301.72;;;14.22;76.88
10606;BME280;5350;42.698;23.148;2023-04-21T07:40:46;93319.09;;;14.31;77.80
10606;BME280;5350;42.698;23.148;2023-04-21T07:43:12;93320.81;;;14.36;74.82
10606;BME280;5350;42.698;23.148;2023-04-21T07:45:39;93320.75;;;14.45;72.35
10606;BME280;5350;42.698;23.148;2023-04-21T07:48:06;93327.97;;;14.27;72.14
10606;BME280;5350;42.698;23.148;2023-04-21T07:50:33;93318.16;;;14.36;71.48
10606;BME280;5350;42.698;23.148;2023-04-21T07:53:00;93307.81;;;14.52;71.72
10606;BME280;5350;42.698;23.148;2023-04-21T07:55:27;93316.63;;;14.64;72.54
10606;BME280;5350;42.698;23.148;2023-04-21T07:57:55;93319.84;;;14.70;73.20
10606;BME280;5350;42.698;23.148;2023-04-21T08:00:22;93324.41;;;14.61;69.45
10606;BME280;5350;42.698;23.148;2023-04-21T08:02:49;93322.00;;;14.47;70.32
10606;BME280;5350;42.698;23.148;2023-04-21T08:05:16;93320.19;;;14.39;70.86
10606;BME280;5350;42.698;23.148;2023-04-21T08:07:42;93327.56;;;14.54;71.91
10606;BME280;5350;42.698;23.148;2023-04-21T08:10:09;93323.16;;;14.58;70.75
10606;BME280;5350;42.698;23.148;2023-04-21T08:12:36;93315.31;;;14.50;71.21
10606;BME280;5350;42.698;23.148;2023-04-21T08:15:05;93319.25;;;14.64;71.27
10606;BME280;5350;42.698;23.148;2023-04-21T08:17:33;93320.50;;;14.87;69.46
10606;BME280;5350;42.698;23.148;2023-04-21T08:20:00;93335.25;;;14.97;70.35
10606;BME280;5350;42.698;23.148;2023-04-21T08:22:27;93313.94;;;14.93;68.49
10606;BME280;5350;42.698;23.148;2023-04-21T08:24:54;93314.44;;;15.07;68.51
10606;BME280;5350;42.698;23.148;2023-04-21T08:27:20;93319.47;;;15.21;66.91
10606;BME280;5350;42.698;23.148;2023-04-21T08:29:48;93309.91;;;15.29;68.17
10606;BME280;5350;42.698;23.148;2023-04-21T08:32:17;93303.19;;;15.52;67.59
10606;BME280;5350;42.698;23.148;2023-04-21T08:34:48;93271.59;;;15.59;67.91
10606;BME280;5350;42.698;23.148;2023-04-21T08:37:16;93301.84;;;16.02;65.09
10606;BME280;5350;42.698;23.148;2023-04-21T08:39:43;93305.19;;;16.12;63.54
10606;BME280;5350;42.698;23.148;2023-04-21T08:42:11;93303.63;;;16.11;63.32
10606;BME280;5350;42.698;23.148;2023-04-21T08:44:38;93298.66;;;16.09;63.21
10606;BME280;5350;42.698;23.148;2023-04-21T08:47:09;93309.25;;;15.85;63.05
10606;BME280;5350;42.698;23.148;2023-04-21T08:49:38;93306.75;;;15.68;63.26
10606;BME280;5350;42.698;23.148;2023-04-21T08:52:05;93290.41;;;15.66;64.47
10606;BME280;5350;42.698;23.148;2023-04-21T08:54:32;93303.22;;;15.64;64.19
10606;BME280;5350;42.698;23.148;2023-04-21T08:57:00;93287.34;;;15.88;65.80
10606;BME280;5350;42.698;23.148;2023-04-21T08:59:27;93220.31;;;15.43;63.53
10606;BME280;5350;42.698;23.148;2023-04-21T09:02:07;93283.88;;;16.08;67.45
10606;BME280;5350;42.698;23.148;2023-04-21T09:04:38;93286.28;;;16.01;63.06
10606;BME280;5350;42.698;23.148;2023-04-21T09:07:05;93285.13;;;15.78;63.14
10606;BME280;5350;42.698;23.148;2023-04-21T09:09:33;93279.34;;;15.52;63.02
10606;BME280;5350;42.698;23.148;2023-04-21T09:12:00;93290.19;;;15.71;63.79
10606;BME280;5350;42.698;23.148;2023-04-21T09:14:31;93266.72;;;15.49;65.06
10606;BME280;5350;42.698;23.148;2023-04-21T09:17:02;93261.78;;;15.59;64.74
10606;BME280;5350;42.698;23.148;2023-04-21T09:19:29;93263.91;;;15.78;63.90
10606;BME280;5350;42.698;23.148;2023-04-21T09:22:00;93273.75;;;15.77;63.02
10606;BME280;5350;42.698;23.148;2023-04-21T09:24:27;93266.66;;;15.69;63.14
10606;BME280;5350;42.698;23.148;2023-04-21T09:26:54;93273.97;;;15.72;63.13
10606;BME280;5350;42.698;23.148;2023-04-21T09:29:21;93267.72;;;16.01;61.06
10606;BME280;5350;42.698;23.148;2023-04-21T09:31:48;93279.78;;;16.23;62.14
10606;BME280;5350;42.698;23.148;2023-04-21T09:34:18;93268.38;;;16.34;59.48
10606;BME280;5350;42.698;23.148;2023-04-21T09:36:45;93257.22;;;16.53;62.02
10606;BME280;5350;42.698;23.148;2023-04-21T09:39:14;93257.94;;;16.90;57.13
10606;BME280;5350;42.698;23.148;2023-04-21T09:41:42;93260.13;;;17.00;56.00
10606;BME280;5350;42.698;23.148;2023-04-21T09:44:09;93250.16;;;16.97;55.30
10606;BME280;5350;42.698;23.148;2023-04-21T09:46:35;93248.81;;;17.03;57.52
10606;BME280;5350;42.698;23.148;2023-04-21T09:49:03;93254.91;;;17.03;53.73
10606;BME280;5350;42.698;23.148;2023-04-21T09:51:30;93253.50;;;16.82;53.71
10606;BME280;5350;42.698;23.148;2023-04-21T09:53:58;93249.31;;;16.81;53.44
10606;BME280;5350;42.698;23.148;2023-04-21T09:56:28;93252.94;;;16.88;54.47
10606;BME280;5350;42.698;23.148;2023-04-21T09:59:00;93251.59;;;16.94;53.53
10606;BME280;5350;42.698;23.148;2023-04-21T10:01:31;93247.59;;;16.72;56.80
10606;BME280;5350;42.698;23.148;2023-04-21T10:04:00;93244.03;;;16.68;55.30
10606;BME280;5350;42.698;23.148;2023-04-21T10:06:28;93245.94;;;16.32;58.04
10606;BME280;5350;42.698;23.148;2023-04-21T10:08:56;93242.50;;;16.19;58.42
10606;BME280;5350;42.698;23.148;2023-04-21T10:11:23;93241.16;;;16.25;57.38
10606;BME280;5350;42.698;23.148;2023-04-21T10:13:52;93239.19;;;16.34;56.31
10606;BME280;5350;42.698;23.148;2023-04-21T10:16:19;93229.69;;;16.33;57.95
10606;BME280;5350;42.698;23.148;2023-04-21T10:18:47;93235.88;;;16.49;57.25
10606;BME280;5350;42.698;23.148;2023-04-21T10:21:17;93232.97;;;16.42;55.82
10606;BME280;5350;42.698;23.148;2023-04-21T10:23:47;93229.91;;;16.52;54.13
10606;BME280;5350;42.698;23.148;2023-04-21T10:26:17;93225.03;;;16.66;54.48
10606;BME280;5350;42.698;23.148;2023-04-21T10:28:53;93234.47;;;16.92;53.50
10606;BME280;5350;42.698;23.148;2023-04-21T10:31:22;93221.47;;;17.02;50.84
10606;BME280;5350;42.698;23.148;2023-04-21T10:34:13;93231.03;;;16.91;50.76
10606;BME280;5350;42.698;23.148;2023-04-21T10:37:12;93222.16;;;16.59;49.01
10606;BME280;5350;42.698;23.148;2023-04-21T10:39:44;93218.50;;;16.64;51.20
10606;BME280;5350;42.698;23.148;2023-04-21T10:42:22;93220.94;;;16.57;50.56
10606;BME280;5350;42.698;23.148;2023-04-21T10:47:39;93211.84;;;16.70;49.37
10606;BME280;5350;42.698;23.148;2023-04-21T10:50:12;93213.88;;;16.89;50.12
10606;BME280;5350;42.698;23.148;2023-04-21T10:52:42;93217.19;;;16.98;50.14
10606;BME280;5350;42.698;23.148;2023-04-21T10:55:09;93212.09;;;16.93;51.02
10606;BME280;5350;42.698;23.148;2023-04-21T10:57:40;93181.69;;;16.38;50.94
10606;BME280;5350;42.698;23.148;2023-04-21T11:00:13;93212.19;;;16.44;50.93
10606;BME280;5350;42.698;23.148;2023-04-21T11:02:41;93212.44;;;16.39;49.09
10606;BME280;5350;42.698;23.148;2023-04-21T11:05:08;93213.75;;;16.45;49.21
10606;BME280;5350;42.698;23.148;2023-04-21T11:07:35;93218.84;;;16.62;49.62
10606;BME280;5350;42.698;23.148;2023-04-21T11:10:03;93207.31;;;16.58;47.87
10606;BME280;5350;42.698;23.148;2023-04-21T11:12:31;93217.59;;;16.72;47.24
10606;BME280;5350;42.698;23.148;2023-04-21T11:15:01;93207.75;;;16.72;46.96
10606;BME280;5350;42.698;23.148;2023-04-21T11:17:30;93208.81;;;16.84;48.62
10606;BME280;5350;42.698;23.148;2023-04-21T11:19:57;93210.00;;;16.86;50.33
10606;BME280;5350;42.698;23.148;2023-04-21T11:22:25;93194.47;;;16.72;50.77
10606;BME280;5350;42.698;23.148;2023-04-21T11:24:53;93207.13;;;16.51;50.87
10606;BME280;5350;42.698;23.148;2023-04-21T11:27:20;93207.66;;;16.45;50.72
10606;BME280;5350;42.698;23.148;2023-04-21T11:29:48;93220.41;;;16.51;49.32
10606;BME280;5350;42.698;23.148;2023-04-21T11:32:16;93217.50;;;16.44;48.79
10606;BME280;5350;42.698;23.148;2023-04-21T11:34:44;93218.72;;;16.35;50.98
10606;BME280;5350;42.698;23.148;2023-04-21T11:37:14;93218.19;;;16.41;52.54
10606;BME280;5350;42.698;23.148;2023-04-21T11:39:41;93220.53;;;16.19;51.67
10606;BME280;5350;42.698;23.148;2023-04-21T11:42:09;93219.38;;;16.44;52.97
10606;BME280;5350;42.698;23.148;2023-04-21T11:44:37;93215.44;;;16.50;51.76
10606;BME280;5350;42.698;23.148;2023-04-21T11:47:12;93213.75;;;16.57;51.04
10606;BME280;5350;42.698;23.148;2023-04-21T11:49:44;93215.50;;;16.65;51.68
10606;BME280;5350;42.698;23.148;2023-04-21T11:52:22;93225.34;;;16.77;50.80
10606;BME280;5350;42.698;23.148;2023-04-21T11:54:55;93216.38;;;16.69;50.52
10606;BME280;5350;42.698;23.148;2023-04-21T11:57:23;93226.56;;;16.67;51.45
10606;BME280;5350;42.698;23.148;2023-04-21T11:59:51;93217.28;;;16.61;51.54
10606;BME280;5350;42.698;23.148;2023-04-21T12:02:22;93242.81;;;16.42;50.56
10606;BME280;5350;42.698;23.148;2023-04-21T12:04:58;93206.69;;;16.49;52.01
10606;BME280;5350;42.698;23.148;2023-04-21T12:07:25;93224.38;;;16.57;51.97
10606;BME280;5350;42.698;23.148;2023-04-21T12:09:52;93214.72;;;16.65;50.06
10606;BME280;5350;42.698;23.148;2023-04-21T12:12:20;93219.72;;;16.66;50.97
10606;BME280;5350;42.698;23.148;2023-04-21T12:14:48;93217.16;;;16.70;49.69
10606;BME280;5350;42.698;23.148;2023-04-21T12:17:15;93212.28;;;16.72;49.92
10606;BME280;5350;42.698;23.148;2023-04-21T12:19:42;93212.50;;;16.67;49.52
10606;BME280;5350;42.698;23.148;2023-04-21T12:22:11;93211.88;;;16.86;49.10
10606;BME280;5350;42.698;23.148;2023-04-21T12:24:39;93213.53;;;16.90;50.97
10606;BME280;5350;42.698;23.148;2023-04-21T12:27:06;93209.38;;;17.05;49.37
10606;BME280;5350;42.698;23.148;2023-04-21T12:29:33;93218.91;;;17.06;48.48
10606;BME280;5350;42.698;23.148;2023-04-21T12:32:02;93219.31;;;17.20;49.16
10606;BME280;5350;42.698;23.148;2023-04-21T12:34:28;93211.81;;;17.37;47.53
10606;BME280;5350;42.698;23.148;2023-04-21T12:36:55;93215.38;;;17.57;48.77
10606;BME280;5350;42.698;23.148;2023-04-21T12:39:23;93177.78;;;17.58;50.02
10606;BME280;5350;42.698;23.148;2023-04-21T12:41:50;93218.75;;;18.01;49.26
10606;BME280;5350;42.698;23.148;2023-04-21T12:44:17;93220.91;;;17.95;48.91
10606;BME280;5350;42.698;23.148;2023-04-21T12:46:43;93198.06;;;17.79;49.15
10606;BME280;5350;42.698;23.148;2023-04-21T12:49:10;93224.84;;;18.01;48.92
10606;BME280;5350;42.698;23.148;2023-04-21T12:51:37;93216.94;;;18.05;47.17
10606;BME280;5350;42.698;23.148;2023-04-21T12:54:04;93213.53;;;18.55;47.98
10606;BME280;5350;42.698;23.148;2023-04-21T12:56:32;93206.59;;;18.85;48.76
10606;BME280;5350;42.698;23.148;2023-04-21T12:58:58;93205.31;;;19.17;47.19
10606;BME280;5350;42.698;23.148;2023-04-21T13:01:25;93205.06;;;19.41;49.39
10606;BME280;5350;42.698;23.148;2023-04-21T13:03:52;93206.88;;;19.56;45.08
10606;BME280;5350;42.698;23.148;2023-04-21T13:06:18;93200.22;;;19.69;43.17
10606;BME280;5350;42.698;23.148;2023-04-21T13:08:45;93190.81;;;20.21;44.96